Time;durP1;ratioP1;P1;durP2;ratioP2;P2;SDS_P1;SDS_P2;PMS_P1;PMS_P2;Temp;Humidity;BMP_temperature;BMP_pressure;BME280_temperature;BME280_humidity;BME280_pressure;Samples;Min_cycle;Max_cycle;Signal;HPM_P1;HPM_P2
2023/12/17 00:00:14;;;;;;;12.60;9.23;;;;;;;10.09;74.75;103790.09;6195032;23;20059;-66
2023/12/17 00:02:42;;;;;;;16.90;10.48;;;;;;;10.09;74.88;103788.25;6195016;23;20073;-67
2023/12/17 00:05:29;;;;;;;15.82;11.02;;;;;;;10.08;74.96;103783.88;6194455;23;20073;-66
2023/12/17 00:07:57;;;;;;;16.30;10.50;;;;;;;10.06;75.06;103771.59;6194806;23;20032;-65
2023/12/17 00:10:26;;;;;;;13.93;10.25;;;;;;;10.06;74.79;103768.91;6194802;23;20350;-67
2023/12/17 00:12:54;;;;;;;11.88;9.55;;;;;;;10.06;74.66;103769.75;6195348;23;20056;-65
2023/12/17 00:15:22;;;;;;;16.92;11.02;;;;;;;10.07;75.20;103757.16;6194895;23;20021;-66
2023/12/17 00:17:49;;;;;;;15.25;10.77;;;;;;;10.07;74.89;103760.69;6195033;23;20435;-66
2023/12/17 00:20:17;;;;;;;17.58;10.70;;;;;;;10.06;74.99;103759.00;6194380;23;20045;-66
2023/12/17 00:22:45;;;;;;;18.38;11.68;;;;;;;10.07;75.11;103762.53;6193201;23;20052;-67
2023/12/17 00:25:13;;;;;;;15.13;11.27;;;;;;;10.06;75.05;103758.16;6196077;23;20029;-67
2023/12/17 00:27:42;;;;;;;15.02;10.50;;;;;;;10.06;74.95;103759.00;6197618;23;20079;-66
2023/12/17 00:30:11;;;;;;;20.90;11.70;;;;;;;10.05;75.28;103762.66;6196671;23;20025;-67
2023/12/17 00:32:39;;;;;;;17.63;11.18;;;;;;;10.05;74.96;103760.00;6196919;23;20095;-67
2023/12/17 00:35:07;;;;;;;17.33;11.48;;;;;;;10.06;75.07;103755.47;6196366;23;20071;-67
2023/12/17 00:37:35;;;;;;;15.93;10.15;;;;;;;10.06;74.99;103747.41;6196291;23;20025;-66
2023/12/17 00:40:03;;;;;;;17.45;12.07;;;;;;;10.06;75.13;103747.41;6197064;23;20052;-67
2023/12/17 00:42:31;;;;;;;18.08;11.50;;;;;;;10.05;75.17;103749.25;6196847;23;20028;-66
2023/12/17 00:45:00;;;;;;;15.73;11.68;;;;;;;10.05;74.97;103748.41;6197065;23;20017;-66
2023/12/17 00:47:28;;;;;;;16.13;11.48;;;;;;;10.06;75.28;103739.34;6196894;23;20029;-67
2023/12/17 00:49:56;;;;;;;18.23;11.95;;;;;;;10.05;75.34;103741.19;6195458;23;20021;-66
2023/12/17 00:52:24;;;;;;;19.20;12.50;;;;;;;10.05;75.40;103733.13;6196024;23;20029;-67
2023/12/17 00:54:52;;;;;;;15.63;11.05;;;;;;;10.06;75.19;103733.97;6196780;23;20021;-67
2023/12/17 00:57:19;;;;;;;20.92;11.75;;;;;;;10.05;75.00;103735.81;6197691;23;20025;-66
2023/12/17 00:59:47;;;;;;;19.17;13.05;;;;;;;10.07;75.96;103735.66;6196893;23;20331;-67
2023/12/17 01:02:17;;;;;;;18.58;12.05;;;;;;;10.08;76.27;103740.03;6195663;23;20032;-68
2023/12/17 01:04:44;;;;;;;16.50;12.48;;;;;;;10.08;75.38;103731.97;6195943;23;20029;-65
2023/12/17 01:07:12;;;;;;;15.95;11.77;;;;;;;10.08;75.79;103724.75;6197957;23;20025;-65
2023/12/17 01:09:40;;;;;;;14.10;10.90;;;;;;;10.08;75.31;103723.91;6196091;23;20029;-66
2023/12/17 01:12:08;;;;;;;18.10;11.60;;;;;;;10.08;75.55;103737.34;6196766;23;20028;-66
2023/12/17 01:14:36;;;;;;;16.05;12.25;;;;;;;10.07;75.56;103731.13;6196513;23;20052;-66
2023/12/17 01:17:06;;;;;;;14.88;11.48;;;;;;;10.08;75.62;103730.13;6196824;23;20032;-66
2023/12/17 01:19:37;;;;;;;16.88;12.15;;;;;;;10.09;75.54;103726.44;6195471;23;20477;-66
2023/12/17 01:22:05;;;;;;;13.38;10.30;;;;;;;10.09;75.21;103725.59;6196324;23;20076;-66
2023/12/17 01:24:33;;;;;;;13.43;10.50;;;;;;;10.09;75.62;103725.59;6196413;23;20021;-67
2023/12/17 01:27:01;;;;;;;14.85;10.63;;;;;;;10.10;75.52;103727.28;6196998;23;20025;-66
2023/12/17 01:29:29;;;;;;;15.85;11.65;;;;;;;10.10;75.75;103712.03;6195476;23;20029;-65
2023/12/17 01:31:57;;;;;;;13.55;10.63;;;;;;;10.10;75.58;103705.81;6195992;23;20021;-65
2023/12/17 01:34:25;;;;;;;15.13;10.38;;;;;;;10.10;75.71;103703.13;6195045;23;20119;-66
2023/12/17 01:36:55;;;;;;;14.82;10.80;;;;;;;10.09;75.95;103704.94;6196684;23;20033;-66
2023/12/17 01:39:23;;;;;;;14.27;10.25;;;;;;;10.09;75.93;103710.31;6196030;23;20025;-66
2023/12/17 01:41:51;;;;;;;16.33;10.63;;;;;;;10.10;76.10;103717.41;6195767;23;20045;-66
2023/12/17 01:44:19;;;;;;;13.88;10.57;;;;;;;10.11;76.06;103726.31;6195796;23;20306;-66
2023/12/17 01:46:47;;;;;;;15.50;11.77;;;;;;;10.09;75.85;103731.81;6196409;23;20024;-66
2023/12/17 01:49:15;;;;;;;12.13;9.43;;;;;;;10.08;75.89;103738.19;6196722;23;20029;-66
2023/12/17 01:51:44;;;;;;;15.10;10.02;;;;;;;10.08;75.41;103742.72;6195486;23;20025;-66
2023/12/17 01:54:13;;;;;;;13.00;9.35;;;;;;;10.08;75.26;103738.19;6195938;23;20129;-66
2023/12/17 01:56:42;;;;;;;12.20;8.85;;;;;;;10.06;75.52;103740.19;6196730;23;20270;-66
2023/12/17 01:59:10;;;;;;;14.93;10.30;;;;;;;10.07;75.97;103738.34;6197257;23;20096;-66
2023/12/17 02:01:37;;;;;;;14.25;9.35;;;;;;;10.06;75.99;103745.56;6195045;23;20029;-66
2023/12/17 02:04:06;;;;;;;13.40;9.70;;;;;;;10.05;75.35;103745.69;6196317;23;20025;-66
2023/12/17 02:06:34;;;;;;;11.85;8.85;;;;;;;10.06;75.36;103750.09;6195092;23;20075;-66
2023/12/17 02:09:02;;;;;;;18.05;9.73;;;;;;;10.06;75.47;103758.16;6196189;23;20052;-66
2023/12/17 02:11:31;;;;;;;11.25;8.93;;;;;;;10.06;75.37;103747.41;6196035;23;20049;-65
2023/12/17 02:13:59;;;;;;;12.02;8.98;;;;;;;10.05;75.37;103746.56;6195767;23;20032;-66
2023/12/17 02:16:27;;;;;;;12.80;9.30;;;;;;;10.05;75.35;103743.03;6196182;23;20017;-66
2023/12/17 02:18:58;;;;;;;10.88;9.10;;;;;;;10.04;75.32;103742.16;6196309;23;20028;-66
2023/12/17 02:21:26;;;;;;;12.13;8.75;;;;;;;10.05;75.25;103732.28;6194567;23;20056;-66
2023/12/17 02:23:55;;;;;;;13.30;9.73;;;;;;;10.05;75.19;103733.13;6195387;23;20103;-66
2023/12/17 02:26:23;;;;;;;13.38;8.50;;;;;;;10.05;75.34;103733.13;6196425;23;20021;-65
2023/12/17 02:28:51;;;;;;;10.18;8.60;;;;;;;10.06;75.08;103725.91;6196485;23;20025;-65
2023/12/17 02:31:19;;;;;;;9.35;7.50;;;;;;;10.05;75.20;103719.69;6195979;23;20051;-66
2023/12/17 02:33:47;;;;;;;12.30;8.68;;;;;;;10.05;75.37;103725.06;6195777;23;20025;-66
2023/12/17 02:36:15;;;;;;;10.15;8.07;;;;;;;10.05;75.36;103726.91;6195197;23;20231;-66
2023/12/17 02:38:43;;;;;;;10.68;7.55;;;;;;;10.04;75.15;103727.88;6195825;23;20025;-66
2023/12/17 02:41:12;;;;;;;12.48;8.65;;;;;;;10.05;75.17;103719.69;6195919;23;20242;-66
2023/12/17 02:43:40;;;;;;;9.35;7.30;;;;;;;10.05;75.24;103718.84;6196605;23;20029;-66
2023/12/17 02:46:07;;;;;;;11.50;8.35;;;;;;;10.06;75.19;103731.28;6195671;23;20021;-66
2023/12/17 02:48:35;;;;;;;9.85;7.75;;;;;;;10.05;75.44;103733.13;6196533;23;20554;-67
2023/12/17 02:51:04;;;;;;;11.05;7.32;;;;;;;10.05;75.23;103729.59;6194870;23;20076;-67
2023/12/17 02:53:31;;;;;;;9.13;7.20;;;;;;;10.04;75.18;103734.09;6195599;23;20025;-66
2023/12/17 02:56:00;;;;;;;10.98;8.05;;;;;;;10.00;75.61;103726.50;6195573;23;20021;-66
2023/12/17 02:58:30;;;;;;;14.70;8.25;;;;;;;10.06;75.19;103731.28;6196232;23;20032;-67
2023/12/17 03:00:57;;;;;;;10.25;7.53;;;;;;;10.06;75.23;103724.06;6195401;23;20459;-65
2023/12/17 03:03:25;;;;;;;10.38;7.78;;;;;;;10.06;75.51;103717.84;6195609;23;20029;-66
2023/12/17 03:05:53;;;;;;;9.98;8.07;;;;;;;10.07;75.39;103727.59;6193983;23;20025;-66
2023/12/17 03:08:21;;;;;;;10.98;8.30;;;;;;;10.06;75.62;103713.31;6195465;23;20029;-65
2023/12/17 03:10:48;;;;;;;9.52;7.45;;;;;;;10.07;75.53;103723.06;6193808;23;20025;-67
2023/12/17 03:13:16;;;;;;;10.02;7.70;;;;;;;10.07;75.99;103723.06;6195894;23;20544;-65
2023/12/17 03:15:45;;;;;;;9.88;7.35;;;;;;;10.08;75.41;103715.84;6195259;23;20025;-65
2023/12/17 03:18:14;;;;;;;9.52;7.03;;;;;;;10.07;75.50;103712.31;6195779;23;20025;-66
2023/12/17 03:20:42;;;;;;;9.88;7.65;;;;;;;10.08;75.60;103713.16;6193609;23;20028;-66
2023/12/17 03:23:10;;;;;;;12.40;7.57;;;;;;;10.07;75.82;103711.47;6195226;23;20025;-66
2023/12/17 03:25:38;;;;;;;10.32;7.82;;;;;;;10.08;75.71;103713.16;6195819;23;20017;-65
2023/12/17 03:28:06;;;;;;;10.05;7.70;;;;;;;10.08;75.97;103719.38;6195408;23;20025;-66
2023/12/17 03:30:34;;;;;;;9.88;7.15;;;;;;;10.08;75.60;103724.75;6194838;23;20502;-65
2023/12/17 03:33:03;;;;;;;10.77;7.25;;;;;;;10.09;75.66;103715.69;6195790;23;20025;-66
2023/12/17 03:35:31;;;;;;;11.10;6.55;;;;;;;10.08;75.46;103711.31;6194896;23;20084;-67
2023/12/17 03:37:59;;;;;;;11.27;7.32;;;;;;;10.08;75.60;103703.25;6195319;23;20028;-66
2023/12/17 03:40:27;;;;;;;9.60;6.97;;;;;;;10.08;75.77;103697.88;6194745;23;20032;-67
2023/12/17 03:42:54;;;;;;;8.38;6.65;;;;;;;10.09;75.66;103704.09;6195621;23;20071;-66
2023/12/17 03:45:22;;;;;;;8.05;6.00;;;;;;;10.08;76.03;103694.34;6195938;23;20096;-65
2023/12/17 03:47:50;;;;;;;9.20;6.68;;;;;;;10.07;75.87;103690.81;6194894;23;20048;-67
2023/12/17 03:50:20;;;;;;;8.60;6.18;;;;;;;10.09;75.75;103696.88;6194598;23;20105;-67
2023/12/17 03:52:48;;;;;;;9.35;7.07;;;;;;;10.08;75.61;103700.56;6194211;23;20025;-67
2023/12/17 03:55:16;;;;;;;8.15;6.47;;;;;;;10.09;75.48;103690.66;6195943;23;20056;-65
2023/12/17 03:57:46;;;;;;;10.90;6.45;;;;;;;10.08;75.66;103699.72;6195776;23;20021;-65
2023/12/17 04:00:15;;;;;;;8.00;5.65;;;;;;;10.04;75.79;103682.22;6194997;23;20140;-66
2023/12/17 04:02:43;;;;;;;9.45;6.47;;;;;;;10.07;75.68;103689.97;6194741;23;20021;-66
2023/12/17 04:05:11;;;;;;;9.23;5.85;;;;;;;10.06;75.31;103688.28;6194435;23;20072;-65
2023/12/17 04:07:40;;;;;;;8.20;6.40;;;;;;;10.05;75.43;103690.13;6194697;23;20036;-65
2023/12/17 04:10:08;;;;;;;8.32;6.00;;;;;;;10.04;75.38;103688.44;6195165;23;20484;-65
2023/12/17 04:12:36;;;;;;;8.65;6.40;;;;;;;10.06;75.41;103682.91;6195158;23;20059;-64
2023/12/17 04:15:05;;;;;;;9.65;6.90;;;;;;;10.05;75.42;103675.84;6195702;23;20320;-65
2023/12/17 04:17:33;;;;;;;8.50;6.50;;;;;;;10.05;75.65;103671.31;6194675;23;20246;-66
2023/12/17 04:20:00;;;;;;;6.88;5.30;;;;;;;10.06;75.36;103674.84;6194436;23;20025;-66
2023/12/17 04:22:28;;;;;;;7.95;6.32;;;;;;;10.04;75.41;103669.63;6194138;23;20076;-67
2023/12/17 04:24:57;;;;;;;7.95;5.93;;;;;;;10.04;75.73;103671.47;6195559;23;20083;-64
2023/12/17 04:27:25;;;;;;;8.18;5.78;;;;;;;10.04;75.58;103680.38;6195449;23;20021;-65
2023/12/17 04:29:54;;;;;;;7.63;5.93;;;;;;;10.04;75.66;103676.84;6194776;23;20060;-66
2023/12/17 04:32:21;;;;;;;8.85;5.82;;;;;;;9.99;75.31;103663.00;6194825;23;20088;-65
2023/12/17 04:34:50;;;;;;;8.80;6.30;;;;;;;10.04;75.35;103668.78;6194068;23;20035;-66
2023/12/17 04:37:18;;;;;;;8.45;5.93;;;;;;;10.03;75.41;103667.09;6194786;23;20024;-65
2023/12/17 04:39:46;;;;;;;8.63;6.32;;;;;;;10.05;75.30;103679.38;6195241;23;20029;-65
2023/12/17 04:42:15;;;;;;;8.43;6.50;;;;;;;10.05;75.39;103673.16;6195712;23;20428;-65
2023/12/17 04:44:43;;;;;;;8.35;6.38;;;;;;;10.05;75.33;103665.94;6190845;23;20029;-65
2023/12/17 04:47:12;;;;;;;7.80;5.95;;;;;;;9.97;75.45;103656.94;6191188;23;20108;-67
2023/12/17 04:49:39;;;;;;;8.80;6.45;;;;;;;10.04;75.39;103672.31;6190422;23;20040;-66
2023/12/17 04:52:07;;;;;;;7.35;5.90;;;;;;;10.04;75.44;103675.00;6190849;23;20479;-67
2023/12/17 04:54:35;;;;;;;8.65;6.75;;;;;;;10.05;75.38;103675.84;6189669;23;20028;-67
2023/12/17 04:57:03;;;;;;;9.07;6.57;;;;;;;10.04;75.51;103676.84;6191484;23;20025;-67
2023/12/17 04:59:32;;;;;;;7.22;5.60;;;;;;;10.04;75.43;103671.47;6191294;23;20024;-66
2023/12/17 05:02:01;;;;;;;8.88;6.25;;;;;;;10.04;75.25;103663.41;6190529;23;20092;-67
2023/12/17 05:04:29;;;;;;;9.07;6.80;;;;;;;10.03;75.26;103657.19;6190247;23;20343;-67
2023/12/17 05:06:57;;;;;;;8.55;6.18;;;;;;;10.04;75.68;103664.25;6190289;23;20043;-66
2023/12/17 05:09:24;;;;;;;9.60;7.25;;;;;;;10.04;75.43;103663.41;6191060;23;20044;-66
2023/12/17 05:11:52;;;;;;;9.32;6.75;;;;;;;10.04;75.47;103660.72;6192156;23;20040;-67
2023/12/17 05:14:20;;;;;;;8.30;6.10;;;;;;;10.04;75.66;103658.88;6193321;23;20362;-67
2023/12/17 05:16:49;;;;;;;9.10;7.05;;;;;;;10.05;75.52;103655.19;6192688;23;20091;-67
2023/12/17 05:19:17;;;;;;;9.00;6.88;;;;;;;10.05;75.62;103651.66;6191916;23;20033;-67
2023/12/17 05:21:45;;;;;;;10.68;7.75;;;;;;;10.05;75.46;103651.66;6191807;23;20032;-67
2023/12/17 05:24:13;;;;;;;9.15;7.10;;;;;;;10.01;75.56;103651.13;6192106;23;20051;-66
2023/12/17 05:26:41;;;;;;;8.90;6.47;;;;;;;10.02;75.54;103646.59;6192051;23;20029;-66
2023/12/17 05:29:08;;;;;;;11.07;6.65;;;;;;;10.05;75.51;103655.19;6192403;23;20021;-65
2023/12/17 05:31:36;;;;;;;9.80;6.95;;;;;;;10.04;75.67;103653.50;6192030;23;20095;-66
2023/12/17 05:34:08;;;;;;;9.07;6.65;;;;;;;10.05;75.56;103647.13;6192577;23;20430;-66
2023/12/17 05:36:36;;;;;;;8.45;6.53;;;;;;;10.04;75.70;103655.34;6192134;23;20029;-65
2023/12/17 05:39:04;;;;;;;11.35;6.97;;;;;;;10.05;75.47;103649.81;6191623;23;20021;-66
2023/12/17 05:41:32;;;;;;;8.93;6.95;;;;;;;10.05;75.54;103654.34;6192420;23;20035;-65
2023/12/17 05:44:00;;;;;;;9.15;6.70;;;;;;;10.04;75.20;103658.88;6191341;23;20029;-66
2023/12/17 05:46:28;;;;;;;9.95;6.85;;;;;;;10.05;75.48;103659.72;6192477;23;20136;-66
2023/12/17 05:48:55;;;;;;;8.90;6.20;;;;;;;10.04;75.47;103658.88;6192146;23;20021;-66
2023/12/17 05:51:25;;;;;;;8.57;6.18;;;;;;;10.05;75.64;103659.72;6191724;23;20076;-65
2023/12/17 05:53:53;;;;;;;8.65;6.55;;;;;;;10.04;75.33;103656.19;6191688;23;20024;-66
2023/12/17 05:56:21;;;;;;;9.30;6.32;;;;;;;10.04;75.50;103649.97;6192352;23;20028;-66
2023/12/17 05:58:49;;;;;;;9.32;5.55;;;;;;;10.04;75.46;103655.34;6192088;23;20028;-65
2023/12/17 06:01:16;;;;;;;9.23;6.28;;;;;;;10.03;75.45;103645.59;6191374;23;20029;-65
2023/12/17 06:03:44;;;;;;;8.25;6.30;;;;;;;10.03;75.25;103646.44;6192362;23;20029;-65
2023/12/17 06:06:12;;;;;;;9.48;5.65;;;;;;;10.03;75.19;103640.22;6191102;23;20442;-65
2023/12/17 06:08:41;;;;;;;9.15;6.32;;;;;;;10.02;75.48;103643.91;6191006;23;20021;-66
2023/12/17 06:11:14;;;;;;;9.88;7.10;;;;;;;10.02;75.47;103638.53;6191928;23;20111;-66
2023/12/17 06:13:42;;;;;;;7.72;6.05;;;;;;;9.97;75.58;103641.66;6191545;23;20435;-65
2023/12/17 06:16:10;;;;;;;7.38;5.53;;;;;;;10.01;75.25;103642.22;6191791;23;20048;-67
2023/12/17 06:18:39;;;;;;;9.00;5.85;;;;;;;10.00;75.57;103641.38;6191680;23;20025;-66
2023/12/17 06:21:07;;;;;;;8.25;5.90;;;;;;;10.00;75.35;103645.88;6191290;23;20029;-67
2023/12/17 06:23:35;;;;;;;7.95;5.85;;;;;;;10.00;75.27;103641.38;6191647;23;20063;-66
2023/12/17 06:26:05;;;;;;;8.23;5.65;;;;;;;10.01;75.45;103642.22;6192337;23;20028;-66
2023/12/17 06:28:32;;;;;;;9.52;6.45;;;;;;;10.00;75.29;103645.88;6191754;23;20017;-70
2023/12/17 06:31:00;;;;;;;7.88;5.90;;;;;;;9.98;75.39;103646.03;6190886;23;20029;-68
2023/12/17 06:33:28;;;;;;;7.43;6.07;;;;;;;10.00;75.28;103656.63;6192106;23;20033;-66
2023/12/17 06:35:57;;;;;;;8.65;5.65;;;;;;;9.99;75.28;103645.03;6190443;23;20184;-68
2023/12/17 06:38:25;;;;;;;8.85;6.43;;;;;;;10.00;75.30;103656.63;6191096;23;20052;-69
2023/12/17 06:40:54;;;;;;;8.70;5.60;;;;;;;9.99;75.14;103655.78;6191551;23;20024;-69
2023/12/17 06:43:23;;;;;;;7.35;5.95;;;;;;;9.99;75.28;103657.63;6192045;23;20069;-67
2023/12/17 06:45:52;;;;;;;7.53;5.47;;;;;;;9.99;75.19;103654.94;6190046;23;20055;-67
2023/12/17 06:48:20;;;;;;;9.68;6.30;;;;;;;10.00;75.11;103662.00;6192082;23;20028;-67
2023/12/17 06:50:48;;;;;;;7.90;5.97;;;;;;;9.99;75.07;103649.56;6189239;23;20160;-67
2023/12/17 06:53:17;;;;;;;9.07;6.47;;;;;;;9.99;74.99;103658.47;6190248;23;20040;-67
2023/12/17 06:55:45;;;;;;;7.05;4.97;;;;;;;9.99;75.24;103660.31;6189839;23;20033;-67
2023/12/17 06:58:13;;;;;;;7.57;6.00;;;;;;;9.98;74.99;103651.41;6191567;23;20049;-67
2023/12/17 07:00:42;;;;;;;6.57;5.18;;;;;;;9.97;74.99;103644.34;6191571;23;20025;-65
2023/12/17 07:03:10;;;;;;;10.82;5.63;;;;;;;9.96;74.84;103648.03;6190498;23;20080;-66
2023/12/17 07:05:38;;;;;;;6.80;5.05;;;;;;;9.96;74.97;103653.41;6190526;23;20024;-65
2023/12/17 07:08:06;;;;;;;8.45;5.47;;;;;;;9.97;75.13;103649.72;6189563;23;20025;-65
2023/12/17 07:10:34;;;;;;;8.90;5.95;;;;;;;9.97;75.02;103651.56;6192035;23;20068;-65
2023/12/17 07:13:03;;;;;;;7.25;4.85;;;;;;;10.01;75.13;103652.94;6190588;23;20032;-65
2023/12/17 07:15:31;;;;;;;6.88;5.28;;;;;;;9.99;75.00;103650.41;6191675;23;20466;-64
2023/12/17 07:18:00;;;;;;;7.55;5.15;;;;;;;10.01;74.72;103644.91;6191391;23;20088;-65
2023/12/17 07:20:28;;;;;;;7.57;5.38;;;;;;;9.99;74.78;103642.34;6188771;23;20033;-65
2023/12/17 07:22:57;;;;;;;7.47;5.57;;;;;;;9.99;74.99;103638.81;6190560;23;20024;-64
2023/12/17 07:25:26;;;;;;;7.45;5.30;;;;;;;9.97;74.84;103647.03;6191409;23;20076;-66
2023/12/17 07:27:54;;;;;;;6.97;5.60;;;;;;;9.98;74.74;103646.03;6192397;23;20075;-67
2023/12/17 07:30:22;;;;;;;7.43;5.38;;;;;;;9.95;74.61;103649.03;6189939;23;20072;-66
2023/12/17 07:32:50;;;;;;;6.35;5.22;;;;;;;9.99;74.72;103654.94;6190644;23;20029;-64
2023/12/17 07:35:20;;;;;;;6.57;4.75;;;;;;;10.01;74.58;103664.53;6189868;23;20025;-67
2023/12/17 07:37:47;;;;;;;6.68;4.68;;;;;;;10.13;74.24;103664.34;6190084;23;20467;-65
2023/12/17 07:40:16;;;;;;;9.38;4.60;;;;;;;10.28;73.71;103657.50;6190756;23;20048;-65
2023/12/17 07:42:43;;;;;;;6.50;5.10;;;;;;;10.46;72.85;103650.28;6190736;23;20052;-65
2023/12/17 07:45:11;;;;;;;6.90;4.15;;;;;;;10.65;72.26;103660.03;6191666;23;20375;-65
2023/12/17 07:47:39;;;;;;;6.60;4.72;;;;;;;10.83;71.55;103665.41;6190980;23;20045;-66
2023/12/17 07:50:11;;;;;;;6.85;4.50;;;;;;;11.00;70.89;103654.63;6189015;23;20021;-64
2023/12/17 07:52:40;;;;;;;7.00;4.43;;;;;;;11.17;69.98;103647.53;6190105;23;20025;-64
2023/12/17 07:55:09;;;;;;;6.20;4.18;;;;;;;11.36;69.21;103651.88;6188256;23;20094;-66
2023/12/17 07:57:37;;;;;;;6.05;4.00;;;;;;;11.39;69.25;103663.19;6190556;23;20288;-66
2023/12/17 08:00:07;;;;;;;5.50;3.90;;;;;;;11.35;69.40;103660.97;6186218;23;20044;-64
2023/12/17 08:02:35;;;;;;;5.93;4.10;;;;;;;11.20;69.73;103666.06;6190064;23;20091;-64
2023/12/17 08:05:05;;;;;;;6.05;4.07;;;;;;;11.06;70.31;103677.41;6189353;23;20576;-66
2023/12/17 08:07:33;;;;;;;8.48;4.80;;;;;;;10.92;70.88;103669.88;6189763;23;20025;-65
2023/12/17 08:10:03;;;;;;;5.38;4.20;;;;;;;10.81;70.98;103673.66;6190476;23;20025;-65
2023/12/17 08:12:31;;;;;;;6.30;4.43;;;;;;;10.72;71.29;103670.03;6191395;23;20025;-65
2023/12/17 08:14:59;;;;;;;6.05;4.40;;;;;;;10.62;71.76;103669.25;6190320;23;20029;-67
2023/12/17 08:17:26;;;;;;;4.82;4.10;;;;;;;10.56;71.92;103674.41;6190785;23;20080;-67
2023/12/17 08:19:54;;;;;;;6.80;4.32;;;;;;;10.50;72.19;103680.38;6189808;23;20024;-66
2023/12/17 08:22:23;;;;;;;7.63;4.35;;;;;;;10.46;72.45;103676.31;6190485;23;20028;-66
2023/12/17 08:24:51;;;;;;;6.60;4.70;;;;;;;10.41;72.53;103671.41;6191410;23;20060;-67
2023/12/17 08:27:21;;;;;;;8.35;5.35;;;;;;;10.37;72.48;103676.25;6191126;23;20033;-66
2023/12/17 08:29:50;;;;;;;6.22;4.55;;;;;;;10.34;72.55;103683.78;6191276;23;20035;-67
2023/12/17 08:32:20;;;;;;;7.07;5.05;;;;;;;10.32;72.77;103685.78;6190030;23;20120;-65
2023/12/17 08:34:48;;;;;;;6.80;5.10;;;;;;;10.29;72.69;103686.91;6190230;23;20091;-66
2023/12/17 08:37:15;;;;;;;6.70;5.13;;;;;;;10.25;72.87;103688.22;6190789;23;20092;-65
2023/12/17 08:39:43;;;;;;;7.60;5.18;;;;;;;10.22;72.94;103684.97;6190265;23;20021;-66
2023/12/17 08:42:11;;;;;;;8.02;5.68;;;;;;;10.20;72.89;103695.88;6190836;23;20056;-65
2023/12/17 08:44:41;;;;;;;9.05;5.32;;;;;;;10.18;72.82;103692.47;6190255;23;20029;-64
2023/12/17 08:47:09;;;;;;;7.07;5.72;;;;;;;10.18;73.00;103691.63;6192115;23;20083;-66
2023/12/17 08:49:37;;;;;;;8.45;5.63;;;;;;;10.15;73.04;103689.22;6191817;23;20042;-65
2023/12/17 08:52:05;;;;;;;7.72;5.60;;;;;;;10.14;73.08;103696.44;6192860;23;20035;-65
2023/12/17 08:54:33;;;;;;;7.82;5.38;;;;;;;10.12;73.13;103693.06;6191464;23;20044;-65
2023/12/17 08:57:01;;;;;;;9.32;6.10;;;;;;;10.09;73.09;103691.53;6190780;23;20045;-65
2023/12/17 08:59:29;;;;;;;9.32;5.85;;;;;;;10.08;73.21;103689.81;6188378;23;20062;-65
2023/12/17 09:01:58;;;;;;;8.75;6.28;;;;;;;10.07;73.15;103698.88;6192014;23;20025;-65
2023/12/17 09:04:26;;;;;;;8.63;6.38;;;;;;;10.06;73.27;103694.50;6161940;23;20032;-66
2023/12/17 09:06:54;;;;;;;10.20;7.38;;;;;;;10.04;72.93;103696.50;6161771;23;20516;-66
2023/12/17 09:09:21;;;;;;;8.63;6.40;;;;;;;10.04;73.13;103692.97;6162301;23;20025;-65
2023/12/17 09:11:49;;;;;;;8.80;6.28;;;;;;;10.02;73.31;103687.72;6162651;23;20407;-67
2023/12/17 09:14:17;;;;;;;9.77;6.90;;;;;;;10.02;73.02;103687.72;6162346;23;20083;-65
2023/12/17 09:16:45;;;;;;;9.85;6.45;;;;;;;10.15;72.74;103698.13;6162933;23;20029;-65
2023/12/17 09:19:14;;;;;;;8.82;6.55;;;;;;;10.31;72.08;103695.69;6162597;23;20029;-66
2023/12/17 09:21:42;;;;;;;11.23;6.93;;;;;;;10.50;71.34;103696.53;6162327;23;20400;-67
2023/12/17 09:24:10;;;;;;;9.52;6.57;;;;;;;10.70;70.42;103690.84;6162053;23;20021;-67
2023/12/17 09:26:38;;;;;;;8.63;6.68;;;;;;;10.88;69.77;103690.03;6162670;23;20045;-66
2023/12/17 09:29:06;;;;;;;10.88;6.53;;;;;;;10.92;69.21;103688.72;6162506;23;20026;-65
2023/12/17 09:31:34;;;;;;;9.02;6.15;;;;;;;10.89;69.54;103692.56;6161607;23;20029;-67
2023/12/17 09:34:02;;;;;;;10.65;6.82;;;;;;;10.82;69.75;103702.25;6162176;23;20117;-66
2023/12/17 09:36:32;;;;;;;10.13;6.60;;;;;;;10.72;70.00;103699.63;6161803;23;20059;-67
2023/12/17 09:39:00;;;;;;;11.85;6.88;;;;;;;10.62;70.50;103693.47;6162788;23;20029;-66
2023/12/17 09:41:28;;;;;;;11.05;7.32;;;;;;;10.55;70.80;103694.22;6162802;23;20018;-65
2023/12/17 09:43:56;;;;;;;14.27;7.40;;;;;;;10.47;70.96;103694.97;6160826;23;20092;-66
2023/12/17 09:46:24;;;;;;;10.80;7.60;;;;;;;10.45;71.19;103707.72;6162028;23;20034;-66
2023/12/17 09:48:52;;;;;;;10.25;7.47;;;;;;;10.39;71.24;103706.53;6158902;23;20113;-66
2023/12/17 09:51:22;;;;;;;12.55;7.50;;;;;;;10.37;71.37;103700.47;6158648;23;20032;-66
2023/12/17 09:53:51;;;;;;;15.68;8.88;;;;;;;10.32;71.15;103700.06;6161344;23;20176;-66
2023/12/17 09:56:19;;;;;;;12.05;8.20;;;;;;;10.31;71.56;103702.91;6161536;23;20052;-67
2023/12/17 09:58:47;;;;;;;9.82;7.22;;;;;;;10.27;71.36;103701.50;6160926;23;20088;-67
2023/12/17 10:01:15;;;;;;;13.18;8.38;;;;;;;10.24;71.65;103707.19;6162074;23;20029;-66
2023/12/17 10:03:43;;;;;;;11.13;7.40;;;;;;;10.21;71.75;103702.94;6183243;23;20303;-67
2023/12/17 10:06:11;;;;;;;14.00;7.88;;;;;;;10.20;71.70;103700.41;6191239;23;20025;-67
2023/12/17 10:08:38;;;;;;;11.35;8.23;;;;;;;10.19;71.72;103699.53;6190987;23;20039;-66
2023/12/17 10:11:08;;;;;;;12.38;8.20;;;;;;;10.14;71.78;103692.91;6191772;23;20020;-66
2023/12/17 10:13:36;;;;;;;16.08;8.52;;;;;;;10.14;71.71;103693.75;6190024;23;20031;-67
2023/12/17 10:16:05;;;;;;;11.00;7.82;;;;;;;10.10;71.95;103697.75;6191730;23;20192;-66
2023/12/17 10:18:33;;;;;;;14.68;9.23;;;;;;;10.15;71.61;103703.50;6191180;23;20033;-66
2023/12/17 10:21:04;;;;;;;14.35;8.82;;;;;;;10.10;71.61;103698.59;6190800;23;20052;-67
2023/12/17 10:23:46;;;;;;;13.20;8.43;;;;;;;10.10;71.74;103703.13;6190695;23;20049;-67
2023/12/17 10:26:15;;;;;;;13.60;9.02;;;;;;;10.07;71.87;103698.88;6191801;23;20052;-67
2023/12/17 10:28:46;;;;;;;12.68;9.10;;;;;;;10.06;71.79;103697.19;6191822;23;20029;-67
2023/12/17 10:31:16;;;;;;;13.77;9.20;;;;;;;10.05;72.00;103694.66;6189334;23;20032;-67
2023/12/17 10:33:51;;;;;;;15.35;9.52;;;;;;;10.02;71.87;103690.41;6190982;23;20032;-67
2023/12/17 10:36:20;;;;;;;16.95;8.68;;;;;;;10.01;71.88;103691.41;6190949;23;20043;-65
2023/12/17 10:38:49;;;;;;;14.15;9.35;;;;;;;10.00;72.00;103675.44;6191059;23;20109;-67
2023/12/17 10:41:19;;;;;;;14.68;8.90;;;;;;;9.99;72.05;103677.28;6192025;23;20060;-65
2023/12/17 10:43:51;;;;;;;15.98;10.27;;;;;;;9.98;72.07;103675.59;6191284;23;20035;-66
2023/12/17 10:46:19;;;;;;;14.90;9.73;;;;;;;9.98;71.99;103664.84;6191029;23;20064;-67
2023/12/17 10:48:48;;;;;;;14.10;9.25;;;;;;;9.99;71.79;103668.38;6191825;23;20033;-66
2023/12/17 10:51:20;;;;;;;15.25;9.65;;;;;;;9.97;72.19;103655.09;6191428;23;20056;-66
2023/12/17 10:53:48;;;;;;;13.55;9.10;;;;;;;9.98;72.13;103659.47;6190033;23;20354;-67
2023/12/17 10:56:17;;;;;;;17.80;9.80;;;;;;;9.97;71.98;103651.56;6192029;23;20029;-67
2023/12/17 10:58:48;;;;;;;14.55;10.52;;;;;;;9.95;71.90;103648.19;6190711;23;20091;-66
2023/12/17 11:01:16;;;;;;;17.52;10.60;;;;;;;9.96;72.25;103644.50;6191525;23;20024;-67
2023/12/17 11:03:45;;;;;;;19.30;10.25;;;;;;;9.95;72.30;103648.19;6190441;23;20087;-66
2023/12/17 11:06:13;;;;;;;17.83;10.73;;;;;;;9.93;71.75;103640.25;6191446;23;20029;-66
2023/12/17 11:08:41;;;;;;;21.25;10.73;;;;;;;9.92;72.01;103635.88;6190490;23;20148;-67
2023/12/17 11:11:09;;;;;;;19.83;9.85;;;;;;;9.90;71.87;103631.66;6191365;23;20607;-67
2023/12/17 11:13:37;;;;;;;21.15;10.20;;;;;;;9.92;71.84;103641.25;6191195;23;20028;-68
2023/12/17 11:16:26;;;;;;;20.77;10.63;;;;;;;9.91;71.74;103622.59;6191612;23;20032;-67
2023/12/17 11:18:54;;;;;;;21.85;11.95;;;;;;;9.90;71.42;103621.75;6191497;23;20031;-67
2023/12/17 11:21:23;;;;;;;25.92;11.57;;;;;;;9.89;71.27;103619.22;6190495;23;20028;-66
2023/12/17 11:23:51;;;;;;;27.55;10.45;;;;;;;9.90;71.92;103618.22;6189832;23;20931;-63
2023/12/17 11:26:20;;;;;;;21.50;10.38;;;;;;;9.92;71.71;103608.19;6189917;23;20060;-69